<?xml version="1.0" encoding="utf-8"?>
<gpx xmlns:xsi="http://www.w3.org/2001/XMLSchema-instance" xmlns:xsd="http://www.w3.org/2001/XMLSchema" version="1.1" creator="Shapelink.com" xmlns="http://www.topografix.com/GPX/1/1" xmlns:gpxtpx="http://www.garmin.com/xmlschemas/TrackPointExtension/v1">
  <metadata>
    <name>Övrigt 1.78 km, 2020-06-25</name>
    <desc></desc>
    <author><name>Marian Moron</name></author> 
    <time>2020-06-25T20:21:20Z</time>
  </metadata>
  <trk>
    <name>Övrigt 1.78 km, 2020-06-25</name>
    <trkseg>
      <trkpt lat="51.229921678276" lon="4.457915861932">
        <ele>28.6</ele>
        <time>2020-06-25T20:21:20Z</time>
      </trkpt>
      <trkpt lat="51.229878092396" lon="4.457948802799">
        <ele>11</ele>
        <time>2020-06-25T20:21:24Z</time>
      </trkpt>
      <trkpt lat="51.229871135419" lon="4.457910665154">
        <ele>11.6</ele>
        <time>2020-06-25T20:21:28Z</time>
      </trkpt>
      <trkpt lat="51.229878260034" lon="4.457843023221">
        <ele>11</ele>
        <time>2020-06-25T20:21:31Z</time>
      </trkpt>
      <trkpt lat="51.229891838712" lon="4.457786780672">
        <ele>12.2</ele>
        <time>2020-06-25T20:21:37Z</time>
      </trkpt>
      <trkpt lat="51.229859400759" lon="4.457053951155">
        <ele>18.8</ele>
        <time>2020-06-25T20:22:14Z</time>
      </trkpt>
      <trkpt lat="51.229856383275" lon="4.457013634216">
        <ele>19.2</ele>
        <time>2020-06-25T20:22:18Z</time>
      </trkpt>
      <trkpt lat="51.229858562569" lon="4.456886983707">
        <ele>21.2</ele>
        <time>2020-06-25T20:22:26Z</time>
      </trkpt>
      <trkpt lat="51.229871135419" lon="4.456757315714">
        <ele>21.8</ele>
        <time>2020-06-25T20:22:36Z</time>
      </trkpt>
      <trkpt lat="51.229970125658" lon="4.45646679906">
        <ele>15.2</ele>
        <time>2020-06-25T20:23:03Z</time>
      </trkpt>
      <trkpt lat="51.230275310637" lon="4.456480713014">
        <ele>11.2</ele>
        <time>2020-06-25T20:23:32Z</time>
      </trkpt>
      <trkpt lat="51.230721479174" lon="4.456364791337">
        <ele>7.4</ele>
        <time>2020-06-25T20:24:09Z</time>
      </trkpt>
      <trkpt lat="51.231046948351" lon="4.456163709556">
        <ele>2.4</ele>
        <time>2020-06-25T20:24:53Z</time>
      </trkpt>
      <trkpt lat="51.23118868628" lon="4.456310811901">
        <ele>5.2</ele>
        <time>2020-06-25T20:25:39Z</time>
      </trkpt>
      <trkpt lat="51.231263369009" lon="4.456408461036">
        <ele>5.6</ele>
        <time>2020-06-25T20:25:51Z</time>
      </trkpt>
      <trkpt lat="51.231388678414" lon="4.4563963911">
        <ele>6.4</ele>
        <time>2020-06-25T20:26:04Z</time>
      </trkpt>
      <trkpt lat="51.231322461404" lon="4.456213581861">
        <ele>7.4</ele>
        <time>2020-06-25T20:26:27Z</time>
      </trkpt>
      <trkpt lat="51.231287341243" lon="4.456164463927">
        <ele>7.4</ele>
        <time>2020-06-25T20:26:37Z</time>
      </trkpt>
      <trkpt lat="51.231169659367" lon="4.456076453977">
        <ele>5.6</ele>
        <time>2020-06-25T20:27:02Z</time>
      </trkpt>
      <trkpt lat="51.231087432928" lon="4.455916359687">
        <ele>3.6</ele>
        <time>2020-06-25T20:27:14Z</time>
      </trkpt>
      <trkpt lat="51.23114761497" lon="4.455880149879">
        <ele>5.2</ele>
        <time>2020-06-25T20:27:40Z</time>
      </trkpt>
      <trkpt lat="51.231209054297" lon="4.455832540687">
        <ele>5.2</ele>
        <time>2020-06-25T20:27:46Z</time>
      </trkpt>
      <trkpt lat="51.231266554131" lon="4.455726509652">
        <ele>13.4</ele>
        <time>2020-06-25T20:27:57Z</time>
      </trkpt>
      <trkpt lat="51.231163037666" lon="4.455039110033">
        <ele>13.2</ele>
        <time>2020-06-25T20:28:40Z</time>
      </trkpt>
      <trkpt lat="51.230996908408" lon="4.454435361776">
        <ele>0.8</ele>
        <time>2020-06-25T20:29:25Z</time>
      </trkpt>
      <trkpt lat="51.230958267849" lon="4.454420190537">
        <ele>0</ele>
        <time>2020-06-25T20:29:30Z</time>
      </trkpt>
      <trkpt lat="51.230960279505" lon="4.454331593854">
        <ele>0</ele>
        <time>2020-06-25T20:29:37Z</time>
      </trkpt>
      <trkpt lat="51.231042925039" lon="4.454017188785">
        <ele>1.8</ele>
        <time>2020-06-25T20:29:58Z</time>
      </trkpt>
      <trkpt lat="51.230962877894" lon="4.453642601674">
        <ele>13.2</ele>
        <time>2020-06-25T20:30:26Z</time>
      </trkpt>
      <trkpt lat="51.230807142192" lon="4.452996524822">
        <ele>11</ele>
        <time>2020-06-25T20:31:12Z</time>
      </trkpt>
      <trkpt lat="51.230809321486" lon="4.452952436028">
        <ele>9</ele>
        <time>2020-06-25T20:31:17Z</time>
      </trkpt>
      <trkpt lat="51.230747043969" lon="4.452244500754">
        <ele>8.8</ele>
        <time>2020-06-25T20:32:00Z</time>
      </trkpt>
      <trkpt lat="51.23068493409" lon="4.452015088151">
        <ele>11.2</ele>
        <time>2020-06-25T20:32:15Z</time>
      </trkpt>
      <trkpt lat="51.230625674057" lon="4.451599681187">
        <ele>7.2</ele>
        <time>2020-06-25T20:32:45Z</time>
      </trkpt>
      <trkpt lat="51.230441104619" lon="4.450979252949">
        <ele>3.2</ele>
        <time>2020-06-25T20:33:25Z</time>
      </trkpt>
      <trkpt lat="51.230430794882" lon="4.450971876877">
        <ele>3.2</ele>
        <time>2020-06-25T20:33:26Z</time>
      </trkpt>
      <trkpt lat="51.230476727694" lon="4.450841538332">
        <ele>6</ele>
        <time>2020-06-25T20:33:40Z</time>
      </trkpt>
      <trkpt lat="51.230552751527" lon="4.450733076546">
        <ele>1.4</ele>
        <time>2020-06-25T20:34:20Z</time>
      </trkpt>
      <trkpt lat="51.2308098244" lon="4.450588321133">
        <ele>0</ele>
        <time>2020-06-25T20:35:30Z</time>
      </trkpt>
      <trkpt lat="51.231193799239" lon="4.450492683654">
        <ele>4.6</ele>
        <time>2020-06-25T20:36:22Z</time>
      </trkpt>
      <trkpt lat="51.231256663489" lon="4.450759311893">
        <ele>8.2</ele>
        <time>2020-06-25T20:36:35Z</time>
      </trkpt>
      <trkpt lat="51.231295220229" lon="4.45101856406">
        <ele>6.2</ele>
        <time>2020-06-25T20:36:56Z</time>
      </trkpt>
      <trkpt lat="51.231320030653" lon="4.451196595616">
        <ele>5.6</ele>
        <time>2020-06-25T20:37:14Z</time>
      </trkpt>
      <trkpt lat="51.231328831648" lon="4.451287539231">
        <ele>6</ele>
        <time>2020-06-25T20:37:19Z</time>
      </trkpt>
      <trkpt lat="51.231365795827" lon="4.451409412057">
        <ele>8</ele>
        <time>2020-06-25T20:37:32Z</time>
      </trkpt>
      <trkpt lat="51.231369316225" lon="4.451586689242">
        <ele>4.8</ele>
        <time>2020-06-25T20:37:55Z</time>
      </trkpt>
      <trkpt lat="51.231459170193" lon="4.45195566048">
        <ele>3.4</ele>
        <time>2020-06-25T20:38:15Z</time>
      </trkpt>
      <trkpt lat="51.231473754699" lon="4.452237627596">
        <ele>0</ele>
        <time>2020-06-25T20:38:31Z</time>
      </trkpt>
      <trkpt lat="51.231535026388" lon="4.452576843089">
        <ele>0</ele>
        <time>2020-06-25T20:38:51Z</time>
      </trkpt>
      <trkpt lat="51.231541480451" lon="4.452620093693">
        <ele>0</ele>
        <time>2020-06-25T20:38:53Z</time>
      </trkpt>
      <trkpt lat="51.231592442403" lon="4.452877920937">
        <ele>0</ele>
        <time>2020-06-25T20:39:07Z</time>
      </trkpt>
      <trkpt lat="51.231592777679" lon="4.452925865405">
        <ele>0</ele>
        <time>2020-06-25T20:39:10Z</time>
      </trkpt>
      <trkpt lat="51.231739880024" lon="4.453596165948">
        <ele>0</ele>
        <time>2020-06-25T20:39:47Z</time>
      </trkpt>
      <trkpt lat="51.231790758157" lon="4.45389690852">
        <ele>0</ele>
        <time>2020-06-25T20:40:05Z</time>
      </trkpt>
      <trkpt lat="51.231842558299" lon="4.454151969737">
        <ele>0</ele>
        <time>2020-06-25T20:40:21Z</time>
      </trkpt>
      <trkpt lat="51.231878181374" lon="4.45442580641">
        <ele>0</ele>
        <time>2020-06-25T20:40:39Z</time>
      </trkpt>
      <trkpt lat="51.231879941573" lon="4.454467967367">
        <ele>0</ele>
        <time>2020-06-25T20:40:42Z</time>
      </trkpt>
      <trkpt lat="51.231887066188" lon="4.454501997881">
        <ele>0</ele>
        <time>2020-06-25T20:40:46Z</time>
      </trkpt>
      <trkpt lat="51.231955462492" lon="4.454933581912">
        <ele>0</ele>
        <time>2020-06-25T20:41:25Z</time>
      </trkpt>
      <trkpt lat="51.232022433873" lon="4.455275982527">
        <ele>0</ele>
        <time>2020-06-25T20:41:42Z</time>
      </trkpt>
      <trkpt lat="51.23204531646" lon="4.455338008587">
        <ele>0</ele>
        <time>2020-06-25T20:41:49Z</time>
      </trkpt>
      <trkpt lat="51.232086890684" lon="4.455568678475">
        <ele>0</ele>
        <time>2020-06-25T20:42:05Z</time>
      </trkpt>
      <trkpt lat="51.232100050267" lon="4.45561855078">
        <ele>0</ele>
        <time>2020-06-25T20:42:15Z</time>
      </trkpt>
      <trkpt lat="51.232129386917" lon="4.455814016688">
        <ele>0</ele>
        <time>2020-06-25T20:42:28Z</time>
      </trkpt>
      <trkpt lat="51.232168027476" lon="4.456008560587">
        <ele>1</ele>
        <time>2020-06-25T20:42:45Z</time>
      </trkpt>
      <trkpt lat="51.232216810134" lon="4.456273596265">
        <ele>3</ele>
        <time>2020-06-25T20:43:00Z</time>
      </trkpt>
      <trkpt lat="51.232218989428" lon="4.456379711119">
        <ele>3</ele>
        <time>2020-06-25T20:43:12Z</time>
      </trkpt>
      <trkpt lat="51.232272214493" lon="4.456774917704">
        <ele>1</ele>
        <time>2020-06-25T20:43:36Z</time>
      </trkpt>
      <trkpt lat="51.232220917265" lon="4.456801655965">
        <ele>0.4</ele>
        <time>2020-06-25T20:43:42Z</time>
      </trkpt>
      <trkpt lat="51.231965436953" lon="4.456906094439">
        <ele>0.4</ele>
        <time>2020-06-25T20:44:28Z</time>
      </trkpt>
      <trkpt lat="51.231560423545" lon="4.456605519505">
        <ele>0</ele>
        <time>2020-06-25T20:45:10Z</time>
      </trkpt>
      <trkpt lat="51.231298992084" lon="4.456512228958">
        <ele>3</ele>
        <time>2020-06-25T20:45:41Z</time>
      </trkpt>
      <trkpt lat="51.231243336268" lon="4.45721278816">
        <ele>6</ele>
        <time>2020-06-25T20:46:19Z</time>
      </trkpt>
      <trkpt lat="51.23100344629" lon="4.457661471267">
        <ele>1</ele>
        <time>2020-06-25T20:47:07Z</time>
      </trkpt>
      <trkpt lat="51.230554008812" lon="4.457757779298">
        <ele>0.2</ele>
        <time>2020-06-25T20:48:01Z</time>
      </trkpt>
      <trkpt lat="51.230522157592" lon="4.457758030755">
        <ele>1</ele>
        <time>2020-06-25T20:48:04Z</time>
      </trkpt>
      <trkpt lat="51.230289978962" lon="4.457839838099">
        <ele>6.8</ele>
        <time>2020-06-25T20:48:36Z</time>
      </trkpt>
      <trkpt lat="51.229842301683" lon="4.457953580482">
        <ele>7.6</ele>
        <time>2020-06-25T20:49:23Z</time>
      </trkpt>
      <trkpt lat="51.229499146697" lon="4.458008817203">
        <ele>5</ele>
        <time>2020-06-25T20:50:06Z</time>
      </trkpt>
      <trkpt lat="51.229466122011" lon="4.45804678721">
        <ele>3.6</ele>
        <time>2020-06-25T20:50:55Z</time>
      </trkpt>
      <trkpt lat="51.229544241319" lon="4.458019629854">
        <ele>6</ele>
        <time>2020-06-25T20:51:03Z</time>
      </trkpt>
      <trkpt lat="51.229670808009" lon="4.45793698432">
        <ele>10.2</ele>
        <time>2020-06-25T20:51:28Z</time>
      </trkpt>
    </trkseg>
  </trk>
</gpx>